sensor_id;sensor_type;location;lat;lon;timestamp;pressure;altitude;pressure_sealevel;temperature
70417;BMP280;57839;51.332;12.410;2024-02-21T00:01:17;100931.09;;;10.33
70417;BMP280;57839;51.332;12.410;2024-02-21T00:03:43;100923.06;;;10.33
70417;BMP280;57839;51.332;12.410;2024-02-21T00:06:08;100921.50;;;10.32
70417;BMP280;57839;51.332;12.410;2024-02-21T00:08:34;100915.38;;;10.31
70417;BMP280;57839;51.332;12.410;2024-02-21T00:10:59;100906.19;;;10.32
70417;BMP280;57839;51.332;12.410;2024-02-21T00:13:24;100910.88;;;10.35
70417;BMP280;57839;51.332;12.410;2024-02-21T00:15:50;100913.00;;;10.30
70417;BMP280;57839;51.332;12.410;2024-02-21T00:18:15;100903.06;;;10.30
70417;BMP280;57839;51.332;12.410;2024-02-21T00:20:40;100904.16;;;10.29
70417;BMP280;57839;51.332;12.410;2024-02-21T00:23:06;100895.72;;;10.27
70417;BMP280;57839;51.332;12.410;2024-02-21T00:25:31;100895.72;;;10.27
70417;BMP280;57839;51.332;12.410;2024-02-21T00:27:56;100885.34;;;10.26
70417;BMP280;57839;51.332;12.410;2024-02-21T00:30:21;100890.25;;;10.24
70417;BMP280;57839;51.332;12.410;2024-02-21T00:32:47;100882.66;;;10.26
70417;BMP280;57839;51.332;12.410;2024-02-21T00:35:13;100887.56;;;10.24
70417;BMP280;57839;51.332;12.410;2024-02-21T00:37:38;100888.34;;;10.24
70417;BMP280;57839;51.332;12.410;2024-02-21T00:40:04;100880.31;;;10.24
70417;BMP280;57839;51.332;12.410;2024-02-21T00:42:30;100880.22;;;10.21
70417;BMP280;57839;51.332;12.410;2024-02-21T00:44:55;100881.00;;;10.21
70417;BMP280;57839;51.332;12.410;2024-02-21T00:47:21;100873.66;;;10.18
70417;BMP280;57839;51.332;12.410;2024-02-21T00:49:46;100867.59;;;10.21
70417;BMP280;57839;51.332;12.410;2024-02-21T00:52:12;100857.91;;;10.17
70417;BMP280;57839;51.332;12.410;2024-02-21T00:54:37;100857.38;;;10.11
70417;BMP280;57839;51.332;12.410;2024-02-21T00:57:02;100857.38;;;10.11
70417;BMP280;57839;51.332;12.410;2024-02-21T00:59:28;100850.88;;;10.12
70417;BMP280;57839;51.332;12.410;2024-02-21T01:01:53;100850.56;;;10.14
70417;BMP280;57839;51.332;12.410;2024-02-21T01:04:19;100846.41;;;10.16
70417;BMP280;57839;51.332;12.410;2024-02-21T01:06:44;100845.94;;;10.14
70417;BMP280;57839;51.332;12.410;2024-02-21T01:09:10;100843.97;;;10.11
70417;BMP280;57839;51.332;12.410;2024-02-21T01:11:36;100840.16;;;10.12
70417;BMP280;57839;51.332;12.410;2024-02-21T01:14:01;100835.94;;;10.11
70417;BMP280;57839;51.332;12.410;2024-02-21T01:16:26;100832.50;;;10.11
70417;BMP280;57839;51.332;12.410;2024-02-21T01:18:52;100834.00;;;10.12
70417;BMP280;57839;51.332;12.410;2024-02-21T01:21:17;100836.69;;;10.12
70417;BMP280;57839;51.332;12.410;2024-02-21T01:23:42;100829.03;;;10.10
70417;BMP280;57839;51.332;12.410;2024-02-21T01:26:08;100832.03;;;10.09
70417;BMP280;57839;51.332;12.410;2024-02-21T01:28:34;100830.56;;;10.11
70417;BMP280;57839;51.332;12.410;2024-02-21T01:30:59;100825.56;;;10.10
70417;BMP280;57839;51.332;12.410;2024-02-21T01:33:25;100824.00;;;10.09
70417;BMP280;57839;51.332;12.410;2024-02-21T01:35:50;100820.97;;;10.10
70417;BMP280;57839;51.332;12.410;2024-02-21T01:38:16;100817.53;;;10.10
70417;BMP280;57839;51.332;12.410;2024-02-21T01:40:41;100809.88;;;10.12
70417;BMP280;57839;51.332;12.410;2024-02-21T01:43:17;100815.53;;;10.07
70417;BMP280;57839;51.332;12.410;2024-02-21T01:45:43;100800.53;;;10.06
70417;BMP280;57839;51.332;12.410;2024-02-21T01:48:08;100804.78;;;10.07
70417;BMP280;57839;51.332;12.410;2024-02-21T01:50:33;100814.06;;;10.09
70417;BMP280;57839;51.332;12.410;2024-02-21T01:52:59;100800.22;;;10.07
70417;BMP280;57839;51.332;12.410;2024-02-21T01:55:25;100801.75;;;10.08
70417;BMP280;57839;51.332;12.410;2024-02-21T01:57:50;100794.44;;;10.05
70417;BMP280;57839;51.332;12.410;2024-02-21T02:00:16;100802.00;;;10.03
70417;BMP280;57839;51.332;12.410;2024-02-21T02:02:41;100791.38;;;10.07
70417;BMP280;57839;51.332;12.410;2024-02-21T02:05:07;100798.66;;;10.06
70417;BMP280;57839;51.332;12.410;2024-02-21T02:07:33;100785.34;;;10.10
70417;BMP280;57839;51.332;12.410;2024-02-21T02:09:58;100777.31;;;10.10
70417;BMP280;57839;51.332;12.410;2024-02-21T02:12:24;100783.06;;;10.12
70417;BMP280;57839;51.332;12.410;2024-02-21T02:15:02;100775.03;;;10.12
70417;BMP280;57839;51.332;12.410;2024-02-21T02:17:30;100774.19;;;10.08
70417;BMP280;57839;51.332;12.410;2024-02-21T02:19:56;100767.25;;;10.07
70417;BMP280;57839;51.332;12.410;2024-02-21T02:22:28;100765.25;;;10.04
70417;BMP280;57839;51.332;12.410;2024-02-21T02:24:54;100759.66;;;10.09
70417;BMP280;57839;51.332;12.410;2024-02-21T02:27:19;100749.59;;;10.06
70417;BMP280;57839;51.332;12.410;2024-02-21T02:29:44;100752.66;;;10.04
70417;BMP280;57839;51.332;12.410;2024-02-21T02:32:10;100759.91;;;10.04
70417;BMP280;57839;51.332;12.410;2024-02-21T02:34:35;100746.50;;;10.04
70417;BMP280;57839;51.332;12.410;2024-02-21T02:37:00;100754.28;;;10.09
70417;BMP280;57839;51.332;12.410;2024-02-21T02:39:26;100738.19;;;10.09
70417;BMP280;57839;51.332;12.410;2024-02-21T02:41:51;100735.88;;;10.07
70417;BMP280;57839;51.332;12.410;2024-02-21T02:44:17;100741.25;;;10.07
70417;BMP280;57839;51.332;12.410;2024-02-21T02:46:42;100742.72;;;10.05
70417;BMP280;57839;51.332;12.410;2024-02-21T02:49:08;100737.34;;;10.05
70417;BMP280;57839;51.332;12.410;2024-02-21T02:51:33;100736.56;;;10.04
70417;BMP280;57839;51.332;12.410;2024-02-21T02:53:59;100739.94;;;10.01
70417;BMP280;57839;51.332;12.410;2024-02-21T02:56:24;100734.66;;;10.05
70417;BMP280;57839;51.332;12.410;2024-02-21T02:58:50;100741.06;;;10.00
70417;BMP280;57839;51.332;12.410;2024-02-21T03:01:15;100741.41;;;9.99
70417;BMP280;57839;51.332;12.410;2024-02-21T03:03:40;100734.22;;;10.03
70417;BMP280;57839;51.332;12.410;2024-02-21T03:06:06;100734.31;;;10.06
70417;BMP280;57839;51.332;12.410;2024-02-21T03:08:31;100726.94;;;10.03
70417;BMP280;57839;51.332;12.410;2024-02-21T03:10:58;100720.06;;;10.02
70417;BMP280;57839;51.332;12.410;2024-02-21T03:13:24;100722.03;;;10.05
70417;BMP280;57839;51.332;12.410;2024-02-21T03:15:50;100724.78;;;10.09
70417;BMP280;57839;51.332;12.410;2024-02-21T03:18:15;100734.31;;;10.06
70417;BMP280;57839;51.332;12.410;2024-02-21T03:20:40;100720.84;;;10.03
70417;BMP280;57839;51.332;12.410;2024-02-21T03:23:06;100714.00;;;10.05
70417;BMP280;57839;51.332;12.410;2024-02-21T03:25:31;100719.09;;;10.10
70417;BMP280;57839;51.332;12.410;2024-02-21T03:27:56;100723.34;;;10.11
70417;BMP280;57839;51.332;12.410;2024-02-21T03:30:22;100720.28;;;10.13
70417;BMP280;57839;51.332;12.410;2024-02-21T03:32:47;100722.97;;;10.13
70417;BMP280;57839;51.332;12.410;2024-02-21T03:35:13;100730.66;;;10.14
70417;BMP280;57839;51.332;12.410;2024-02-21T03:37:38;100723.75;;;10.13
70417;BMP280;57839;51.332;12.410;2024-02-21T03:40:06;100726.00;;;10.11
70417;BMP280;57839;51.332;12.410;2024-02-21T03:42:32;100719.91;;;10.11
70417;BMP280;57839;51.332;12.410;2024-02-21T03:44:57;100730.22;;;10.12
70417;BMP280;57839;51.332;12.410;2024-02-21T03:47:23;100717.22;;;10.11
70417;BMP280;57839;51.332;12.410;2024-02-21T03:49:48;100723.34;;;10.11
70417;BMP280;57839;51.332;12.410;2024-02-21T03:52:14;100717.53;;;10.09
70417;BMP280;57839;51.332;12.410;2024-02-21T03:54:39;100719.91;;;10.11
70417;BMP280;57839;51.332;12.410;2024-02-21T03:57:05;100726.75;;;10.12
70417;BMP280;57839;51.332;12.410;2024-02-21T03:59:30;100721.41;;;10.12
70417;BMP280;57839;51.332;12.410;2024-02-21T04:01:56;100725.75;;;10.16
70417;BMP280;57839;51.332;12.410;2024-02-21T04:04:21;100725.75;;;10.16
70417;BMP280;57839;51.332;12.410;2024-02-21T04:06:47;100715.97;;;10.08
70417;BMP280;57839;51.332;12.410;2024-02-21T04:09:13;100727.16;;;10.10
70417;BMP280;57839;51.332;12.410;2024-02-21T04:11:38;100724.78;;;10.09
70417;BMP280;57839;51.332;12.410;2024-02-21T04:14:07;100718.66;;;10.08
70417;BMP280;57839;51.332;12.410;2024-02-21T04:16:36;100724.47;;;10.10
70417;BMP280;57839;51.332;12.410;2024-02-21T04:19:01;100718.66;;;10.08
70417;BMP280;57839;51.332;12.410;2024-02-21T04:21:27;100718.66;;;10.08
70417;BMP280;57839;51.332;12.410;2024-02-21T04:23:52;100717.22;;;10.11
70417;BMP280;57839;51.332;12.410;2024-02-21T04:26:18;100716.44;;;10.10
70417;BMP280;57839;51.332;12.410;2024-02-21T04:28:44;100715.22;;;10.08
70417;BMP280;57839;51.332;12.410;2024-02-21T04:31:10;100707.06;;;10.04
70417;BMP280;57839;51.332;12.410;2024-02-21T04:33:35;100703.28;;;10.05
70417;BMP280;57839;51.332;12.410;2024-02-21T04:36:01;100693.31;;;10.06
70417;BMP280;57839;51.332;12.410;2024-02-21T04:38:27;100691.78;;;10.05
70417;BMP280;57839;51.332;12.410;2024-02-21T04:40:54;100677.19;;;10.02
70417;BMP280;57839;51.332;12.410;2024-02-21T04:43:19;100682.44;;;9.99
70417;BMP280;57839;51.332;12.410;2024-02-21T04:45:45;100689.81;;;10.02
70417;BMP280;57839;51.332;12.410;2024-02-21T04:48:10;100694.72;;;10.00
70417;BMP280;57839;51.332;12.410;2024-02-21T04:50:35;100686.25;;;9.98
70417;BMP280;57839;51.332;12.410;2024-02-21T04:53:01;100670.94;;;9.98
70417;BMP280;57839;51.332;12.410;2024-02-21T04:55:26;100674.31;;;9.95
70417;BMP280;57839;51.332;12.410;2024-02-21T04:57:52;100673.97;;;9.97
70417;BMP280;57839;51.332;12.410;2024-02-21T05:00:17;100669.06;;;9.99
70417;BMP280;57839;51.332;12.410;2024-02-21T05:02:43;100664.38;;;9.96
70417;BMP280;57839;51.332;12.410;2024-02-21T05:05:08;100657.44;;;9.95
70417;BMP280;57839;51.332;12.410;2024-02-21T05:07:34;100655.66;;;9.99
70417;BMP280;57839;51.332;12.410;2024-02-21T05:10:00;100659.44;;;9.98
70417;BMP280;57839;51.332;12.410;2024-02-21T05:12:25;100655.56;;;9.95
70417;BMP280;57839;51.332;12.410;2024-02-21T05:14:51;100647.16;;;9.97
70417;BMP280;57839;51.332;12.410;2024-02-21T05:17:16;100633.31;;;9.95
70417;BMP280;57839;51.332;12.410;2024-02-21T05:19:42;100636.38;;;9.93
70417;BMP280;57839;51.332;12.410;2024-02-21T05:22:08;100631.06;;;9.97
70417;BMP280;57839;51.332;12.410;2024-02-21T05:24:33;100629.09;;;9.94
70417;BMP280;57839;51.332;12.410;2024-02-21T05:26:58;100613.44;;;9.96
70417;BMP280;57839;51.332;12.410;2024-02-21T05:29:24;100623.81;;;9.97
70417;BMP280;57839;51.332;12.410;2024-02-21T05:34:18;100615.34;;;9.95
70417;BMP280;57839;51.332;12.410;2024-02-21T05:36:43;100614.56;;;9.95
70417;BMP280;57839;51.332;12.410;2024-02-21T05:39:09;100615.78;;;9.97
70417;BMP280;57839;51.332;12.410;2024-02-21T05:41:35;100602.38;;;9.97
70417;BMP280;57839;51.332;12.410;2024-02-21T05:44:00;100604.56;;;9.92
70417;BMP280;57839;51.332;12.410;2024-02-21T05:46:26;100604.91;;;9.90
70417;BMP280;57839;51.332;12.410;2024-02-21T05:48:51;100611.50;;;9.93
70417;BMP280;57839;51.332;12.410;2024-02-21T05:51:16;100606.81;;;9.90
70417;BMP280;57839;51.332;12.410;2024-02-21T05:53:42;100616.06;;;9.92
70417;BMP280;57839;51.332;12.410;2024-02-21T05:56:12;100612.06;;;9.86
70417;BMP280;57839;51.332;12.410;2024-02-21T05:58:37;100607.50;;;9.87
70417;BMP280;57839;51.332;12.410;2024-02-21T06:01:03;100611.28;;;9.86
70417;BMP280;57839;51.332;12.410;2024-02-21T06:03:29;100598.59;;;9.83
70417;BMP280;57839;51.332;12.410;2024-02-21T06:05:55;100599.66;;;9.78
70417;BMP280;57839;51.332;12.410;2024-02-21T06:08:20;100590.16;;;9.81
70417;BMP280;57839;51.332;12.410;2024-02-21T06:10:46;100580.13;;;9.78
70417;BMP280;57839;51.332;12.410;2024-02-21T06:13:11;100586.25;;;9.78
70417;BMP280;57839;51.332;12.410;2024-02-21T06:15:36;100581.25;;;9.77
70417;BMP280;57839;51.332;12.410;2024-02-21T06:18:02;100583.41;;;9.71
70417;BMP280;57839;51.332;12.410;2024-02-21T06:20:27;100585.31;;;9.71
70417;BMP280;57839;51.332;12.410;2024-02-21T06:22:53;100576.94;;;9.72
70417;BMP280;57839;51.332;12.410;2024-02-21T06:25:18;100570.03;;;9.71
70417;BMP280;57839;51.332;12.410;2024-02-21T06:27:44;100572.78;;;9.75
70417;BMP280;57839;51.332;12.410;2024-02-21T06:30:09;100577.63;;;9.69
70417;BMP280;57839;51.332;12.410;2024-02-21T06:32:34;100590.16;;;9.65
70417;BMP280;57839;51.332;12.410;2024-02-21T06:35:00;100607.72;;;9.63
70417;BMP280;57839;51.332;12.410;2024-02-21T06:37:27;100608.50;;;9.63
70417;BMP280;57839;51.332;12.410;2024-02-21T06:39:52;100609.72;;;9.66
70417;BMP280;57839;51.332;12.410;2024-02-21T06:42:18;100612.03;;;9.67
70417;BMP280;57839;51.332;12.410;2024-02-21T06:44:44;100614.00;;;9.70
70417;BMP280;57839;51.332;12.410;2024-02-21T06:47:09;100628.34;;;9.78
70417;BMP280;57839;51.332;12.410;2024-02-21T06:49:34;100632.59;;;9.79
70417;BMP280;57839;51.332;12.410;2024-02-21T06:52:00;100634.50;;;9.78
70417;BMP280;57839;51.332;12.410;2024-02-21T06:54:25;100635.28;;;9.79
70417;BMP280;57839;51.332;12.410;2024-02-21T06:56:50;100645.38;;;9.85
70417;BMP280;57839;51.332;12.410;2024-02-21T06:59:16;100653.00;;;9.83
70417;BMP280;57839;51.332;12.410;2024-02-21T07:01:48;100647.19;;;9.81
70417;BMP280;57839;51.332;12.410;2024-02-21T07:04:16;100650.63;;;9.82
70417;BMP280;57839;51.332;12.410;2024-02-21T07:06:42;100658.41;;;9.87
70417;BMP280;57839;51.332;12.410;2024-02-21T07:09:07;100658.53;;;9.90
70417;BMP280;57839;51.332;12.410;2024-02-21T07:11:32;100664.31;;;9.92
70417;BMP280;57839;51.332;12.410;2024-02-21T07:13:58;100652.88;;;9.95
70417;BMP280;57839;51.332;12.410;2024-02-21T07:16:23;100631.03;;;9.93
70417;BMP280;57839;51.332;12.410;2024-02-21T07:18:49;100632.94;;;9.93
70417;BMP280;57839;51.332;12.410;2024-02-21T07:21:14;100631.72;;;9.90
70417;BMP280;57839;51.332;12.410;2024-02-21T07:23:43;100640.97;;;9.93
70417;BMP280;57839;51.332;12.410;2024-02-21T07:26:08;100653.59;;;9.92
70417;BMP280;57839;51.332;12.410;2024-02-21T07:28:33;100643.97;;;9.91
70417;BMP280;57839;51.332;12.410;2024-02-21T07:30:59;100642.88;;;9.92
70417;BMP280;57839;51.332;12.410;2024-02-21T07:33:25;100651.41;;;9.98
70417;BMP280;57839;51.332;12.410;2024-02-21T07:35:50;100648.47;;;10.03
70417;BMP280;57839;51.332;12.410;2024-02-21T07:38:15;100662.22;;;10.01
70417;BMP280;57839;51.332;12.410;2024-02-21T07:40:44;100657.63;;;10.02
70417;BMP280;57839;51.332;12.410;2024-02-21T07:43:09;100652.00;;;10.07
70417;BMP280;57839;51.332;12.410;2024-02-21T07:45:34;100652.78;;;10.07
70417;BMP280;57839;51.332;12.410;2024-02-21T07:48:00;100646.34;;;10.12
70417;BMP280;57839;51.332;12.410;2024-02-21T07:50:25;100637.59;;;10.15
70417;BMP280;57839;51.332;12.410;2024-02-21T07:52:50;100638.06;;;10.17
70417;BMP280;57839;51.332;12.410;2024-02-21T07:55:16;100625.88;;;10.19
70417;BMP280;57839;51.332;12.410;2024-02-21T07:57:41;100625.88;;;10.19
70417;BMP280;57839;51.332;12.410;2024-02-21T08:00:06;100618.56;;;10.20
70417;BMP280;57839;51.332;12.410;2024-02-21T08:02:34;100618.56;;;10.20
70417;BMP280;57839;51.332;12.410;2024-02-21T08:05:00;100609.91;;;10.26
70417;BMP280;57839;51.332;12.410;2024-02-21T08:07:25;100609.91;;;10.26
70417;BMP280;57839;51.332;12.410;2024-02-21T08:09:54;100591.06;;;10.23
70417;BMP280;57839;51.332;12.410;2024-02-21T08:12:19;100591.06;;;10.23
70417;BMP280;57839;51.332;12.410;2024-02-21T08:14:44;100586.59;;;10.30
70417;BMP280;57839;51.332;12.410;2024-02-21T08:17:10;100588.97;;;10.32
70417;BMP280;57839;51.332;12.410;2024-02-21T08:19:35;100592.06;;;10.34
70417;BMP280;57839;51.332;12.410;2024-02-21T08:22:00;100592.06;;;10.34
70417;BMP280;57839;51.332;12.410;2024-02-21T08:24:26;100582.16;;;10.38
70417;BMP280;57839;51.332;12.410;2024-02-21T08:26:51;100577.22;;;10.40
70417;BMP280;57839;51.332;12.410;2024-02-21T08:29:16;100574.56;;;10.40
70417;BMP280;57839;51.332;12.410;2024-02-21T08:31:42;100584.63;;;10.47
70417;BMP280;57839;51.332;12.410;2024-02-21T08:34:07;100588.44;;;10.46
70417;BMP280;57839;51.332;12.410;2024-02-21T08:36:33;100580.41;;;10.46
70417;BMP280;57839;51.332;12.410;2024-02-21T08:38:59;100588.38;;;10.42
70417;BMP280;57839;51.332;12.410;2024-02-21T08:41:24;100599.91;;;10.43
70417;BMP280;57839;51.332;12.410;2024-02-21T08:43:53;100595.31;;;10.43
70417;BMP280;57839;51.332;12.410;2024-02-21T08:46:22;100600.72;;;10.47
70417;BMP280;57839;51.332;12.410;2024-02-21T08:48:49;100595.38;;;10.47
70417;BMP280;57839;51.332;12.410;2024-02-21T08:51:14;100596.91;;;10.48
70417;BMP280;57839;51.332;12.410;2024-02-21T08:53:39;100585.06;;;10.49
70417;BMP280;57839;51.332;12.410;2024-02-21T08:56:05;100590.34;;;10.45
70417;BMP280;57839;51.332;12.410;2024-02-21T08:58:30;100584.59;;;10.43
70417;BMP280;57839;51.332;12.410;2024-02-21T09:00:56;100581.50;;;10.45
70417;BMP280;57839;51.332;12.410;2024-02-21T09:03:22;100585.06;;;10.49
70417;BMP280;57839;51.332;12.410;2024-02-21T09:05:47;100583.59;;;10.51
70417;BMP280;57839;51.332;12.410;2024-02-21T09:08:12;100581.28;;;10.53
70417;BMP280;57839;51.332;12.410;2024-02-21T09:10:39;100586.66;;;10.53
70417;BMP280;57839;51.332;12.410;2024-02-21T09:13:04;100588.94;;;10.51
70417;BMP280;57839;51.332;12.410;2024-02-21T09:15:30;100592.47;;;10.55
70417;BMP280;57839;51.332;12.410;2024-02-21T09:17:55;100601.56;;;10.51
70417;BMP280;57839;51.332;12.410;2024-02-21T09:20:20;100598.91;;;10.51
70417;BMP280;57839;51.332;12.410;2024-02-21T09:22:46;100594.69;;;10.53
70417;BMP280;57839;51.332;12.410;2024-02-21T09:25:11;100593.69;;;10.58
70417;BMP280;57839;51.332;12.410;2024-02-21T09:27:37;100589.41;;;10.57
70417;BMP280;57839;51.332;12.410;2024-02-21T09:30:03;100578.00;;;10.60
70417;BMP280;57839;51.332;12.410;2024-02-21T09:32:29;100589.84;;;10.59
70417;BMP280;57839;51.332;12.410;2024-02-21T09:34:55;100589.13;;;10.62
70417;BMP280;57839;51.332;12.410;2024-02-21T09:37:20;100592.59;;;10.62
70417;BMP280;57839;51.332;12.410;2024-02-21T09:39:45;100601.09;;;10.64
70417;BMP280;57839;51.332;12.410;2024-02-21T09:42:12;100598.44;;;10.68
70417;BMP280;57839;51.332;12.410;2024-02-21T09:44:39;100590.78;;;10.66
70417;BMP280;57839;51.332;12.410;2024-02-21T09:47:30;100592.34;;;10.71
70417;BMP280;57839;51.332;12.410;2024-02-21T09:49:50;100592.34;;;10.71
70417;BMP280;57839;51.332;12.410;2024-02-21T09:52:17;100595.03;;;10.67
70417;BMP280;57839;51.332;12.410;2024-02-21T09:54:44;100585.53;;;10.73
70417;BMP280;57839;51.332;12.410;2024-02-21T09:57:10;100582.53;;;10.78
70417;BMP280;57839;51.332;12.410;2024-02-21T09:59:35;100581.47;;;10.83
70417;BMP280;57839;51.332;12.410;2024-02-21T10:02:00;100569.31;;;10.89
70417;BMP280;57839;51.332;12.410;2024-02-21T10:04:26;100586.63;;;10.91
70417;BMP280;57839;51.332;12.410;2024-02-21T10:06:53;100583.31;;;11.01
70417;BMP280;57839;51.332;12.410;2024-02-21T10:09:25;100569.97;;;11.05
70417;BMP280;57839;51.332;12.410;2024-02-21T10:11:53;100579.53;;;11.02
70417;BMP280;57839;51.332;12.410;2024-02-21T10:14:18;100575.28;;;11.01
70417;BMP280;57839;51.332;12.410;2024-02-21T10:16:45;100572.66;;;11.05
70417;BMP280;57839;51.332;12.410;2024-02-21T10:19:19;100560.81;;;11.06
70417;BMP280;57839;51.332;12.410;2024-02-21T10:22:03;100563.25;;;11.15
70417;BMP280;57839;51.332;12.410;2024-02-21T10:24:29;100557.88;;;11.15
70417;BMP280;57839;51.332;12.410;2024-02-21T10:26:58;100570.91;;;11.16
70417;BMP280;57839;51.332;12.410;2024-02-21T10:29:24;100548.25;;;11.13
70417;BMP280;57839;51.332;12.410;2024-02-21T10:31:49;100550.16;;;11.13
70417;BMP280;57839;51.332;12.410;2024-02-21T10:34:16;100560.91;;;11.13
70417;BMP280;57839;51.332;12.410;2024-02-21T10:36:41;100554.75;;;11.12
70417;BMP280;57839;51.332;12.410;2024-02-21T10:39:08;100542.53;;;11.15
70417;BMP280;57839;51.332;12.410;2024-02-21T10:41:34;100551.78;;;11.18
70417;BMP280;57839;51.332;12.410;2024-02-21T10:44:01;100554.50;;;11.21
70417;BMP280;57839;51.332;12.410;2024-02-21T10:46:30;100550.31;;;11.24
70417;BMP280;57839;51.332;12.410;2024-02-21T10:51:30;100546.00;;;11.16
70417;BMP280;57839;51.332;12.410;2024-02-21T10:54:13;100551.09;;;11.24
70417;BMP280;57839;51.332;12.410;2024-02-21T10:56:42;100541.56;;;11.27
70417;BMP280;57839;51.332;12.410;2024-02-21T10:59:08;100522.41;;;11.28
70417;BMP280;57839;51.332;12.410;2024-02-21T11:01:34;100524.75;;;11.33
70417;BMP280;57839;51.332;12.410;2024-02-21T11:04:03;100516.69;;;11.33
70417;BMP280;57839;51.332;12.410;2024-02-21T11:06:32;100510.97;;;11.35
70417;BMP280;57839;51.332;12.410;2024-02-21T11:09:08;100518.31;;;11.38
70417;BMP280;57839;51.332;12.410;2024-02-21T11:11:43;100510.28;;;11.38
70417;BMP280;57839;51.332;12.410;2024-02-21T11:16:40;100494.16;;;11.38
70417;BMP280;57839;51.332;12.410;2024-02-21T11:19:06;100494.22;;;11.45
70417;BMP280;57839;51.332;12.410;2024-02-21T11:21:35;100491.16;;;11.46
70417;BMP280;57839;51.332;12.410;2024-02-21T11:24:01;100471.69;;;11.53
70417;BMP280;57839;51.332;12.410;2024-02-21T11:26:27;100473.72;;;11.59
70417;BMP280;57839;51.332;12.410;2024-02-21T11:29:00;100458.03;;;11.65
70417;BMP280;57839;51.332;12.410;2024-02-21T11:31:25;100453.91;;;11.74
70417;BMP280;57839;51.332;12.410;2024-02-21T11:33:54;100449.72;;;11.77
70417;BMP280;57839;51.332;12.410;2024-02-21T11:36:23;100441.34;;;11.82
70417;BMP280;57839;51.332;12.410;2024-02-21T11:38:50;100439.81;;;11.84
70417;BMP280;57839;51.332;12.410;2024-02-21T11:41:16;100435.63;;;11.87
70417;BMP280;57839;51.332;12.410;2024-02-21T11:43:41;100430.63;;;11.85
70417;BMP280;57839;51.332;12.410;2024-02-21T11:46:07;100432.59;;;11.88
70417;BMP280;57839;51.332;12.410;2024-02-21T11:48:32;100414.53;;;11.89
70417;BMP280;57839;51.332;12.410;2024-02-21T11:50:57;100413.78;;;11.92
70417;BMP280;57839;51.332;12.410;2024-02-21T11:53:23;100410.69;;;11.90
70417;BMP280;57839;51.332;12.410;2024-02-21T11:55:49;100396.88;;;11.88
70417;BMP280;57839;51.332;12.410;2024-02-21T11:58:15;100398.00;;;11.90
70417;BMP280;57839;51.332;12.410;2024-02-21T12:00:40;100397.28;;;11.93
70417;BMP280;57839;51.332;12.410;2024-02-21T12:03:06;100395.41;;;11.98
70417;BMP280;57839;51.332;12.410;2024-02-21T12:05:31;100395.41;;;11.98
70417;BMP280;57839;51.332;12.410;2024-02-21T12:07:57;100381.94;;;11.94
70417;BMP280;57839;51.332;12.410;2024-02-21T12:10:23;100379.66;;;11.96
70417;BMP280;57839;51.332;12.410;2024-02-21T12:12:48;100375.78;;;11.93
70417;BMP280;57839;51.332;12.410;2024-02-21T12:15:17;100375.78;;;11.93
70417;BMP280;57839;51.332;12.410;2024-02-21T12:17:43;100363.84;;;11.91
70417;BMP280;57839;51.332;12.410;2024-02-21T12:20:08;100363.16;;;11.98
70417;BMP280;57839;51.332;12.410;2024-02-21T12:22:37;100363.16;;;11.98
70417;BMP280;57839;51.332;12.410;2024-02-21T12:25:24;100360.91;;;12.03
70417;BMP280;57839;51.332;12.410;2024-02-21T12:27:51;100360.91;;;12.03
70417;BMP280;57839;51.332;12.410;2024-02-21T12:30:16;100352.13;;;12.13
70417;BMP280;57839;51.332;12.410;2024-02-21T12:32:42;100352.13;;;12.13
70417;BMP280;57839;51.332;12.410;2024-02-21T12:35:07;100346.41;;;12.18
70417;BMP280;57839;51.332;12.410;2024-02-21T12:37:33;100346.41;;;12.18
70417;BMP280;57839;51.332;12.410;2024-02-21T12:39:58;100338.13;;;12.41
70417;BMP280;57839;51.332;12.410;2024-02-21T12:42:24;100332.03;;;12.47
70417;BMP280;57839;51.332;12.410;2024-02-21T12:44:51;100325.91;;;12.50
70417;BMP280;57839;51.332;12.410;2024-02-21T12:47:16;100322.13;;;12.58
70417;BMP280;57839;51.332;12.410;2024-02-21T12:49:44;100312.09;;;12.59
70417;BMP280;57839;51.332;12.410;2024-02-21T12:52:09;100309.44;;;12.66
70417;BMP280;57839;51.332;12.410;2024-02-21T12:54:34;100299.47;;;12.70
70417;BMP280;57839;51.332;12.410;2024-02-21T12:57:00;100300.28;;;12.81
70417;BMP280;57839;51.332;12.410;2024-02-21T12:59:28;100286.16;;;12.98
70417;BMP280;57839;51.332;12.410;2024-02-21T13:01:53;100290.81;;;13.15
70417;BMP280;57839;51.332;12.410;2024-02-21T13:04:18;100271.59;;;13.24
70417;BMP280;57839;51.332;12.410;2024-02-21T13:06:44;100259.72;;;13.42
70417;BMP280;57839;51.332;12.410;2024-02-21T13:09:10;100260.09;;;13.55
70417;BMP280;57839;51.332;12.410;2024-02-21T13:11:36;100251.63;;;13.78
70417;BMP280;57839;51.332;12.410;2024-02-21T13:14:02;100240.41;;;14.07
70417;BMP280;57839;51.332;12.410;2024-02-21T13:16:28;100248.06;;;14.26
70417;BMP280;57839;51.332;12.410;2024-02-21T13:18:53;100233.34;;;14.41
70417;BMP280;57839;51.332;12.410;2024-02-21T13:21:19;100220.19;;;14.61
70417;BMP280;57839;51.332;12.410;2024-02-21T13:23:44;100212.38;;;14.74
70417;BMP280;57839;51.332;12.410;2024-02-21T13:26:10;100206.88;;;14.91
70417;BMP280;57839;51.332;12.410;2024-02-21T13:28:36;100206.88;;;14.91
70417;BMP280;57839;51.332;12.410;2024-02-21T13:31:02;100204.13;;;15.02
70417;BMP280;57839;51.332;12.410;2024-02-21T13:33:28;100205.19;;;15.15
70417;BMP280;57839;51.332;12.410;2024-02-21T13:35:54;100192.03;;;15.17
70417;BMP280;57839;51.332;12.410;2024-02-21T13:38:19;100196.28;;;15.18
70417;BMP280;57839;51.332;12.410;2024-02-21T13:40:45;100190.38;;;15.30
70417;BMP280;57839;51.332;12.410;2024-02-21T13:43:10;100193.91;;;15.27
70417;BMP280;57839;51.332;12.410;2024-02-21T13:45:35;100192.28;;;15.33
70417;BMP280;57839;51.332;12.410;2024-02-21T13:48:01;100184.31;;;15.19